Time;durP1;ratioP1;P1;durP2;ratioP2;P2;SDS_P1;SDS_P2;PMS_P1;PMS_P2;Temp;Humidity;BMP_temperature;BMP_pressure;BME280_temperature;BME280_humidity;BME280_pressure;Samples;Min_cycle;Max_cycle;Signal;HPM_P1;HPM_P2
2023/09/17 00:01:23;;;;;;;0.05;0.05;;;;;;;;;;5033111;28;20419;-76
2023/09/17 00:03:51;;;;;;;0.00;0.00;;;;;;;;;;5027465;28;20502;-76
2023/09/17 00:06:20;;;;;;;0.10;0.10;;;;;;;;;;5029635;28;20292;-76
2023/09/17 00:08:48;;;;;;;0.00;0.00;;;;;;;;;;5024635;28;20049;-76
2023/09/17 00:11:15;;;;;;;0.00;0.00;;;;;;;;;;5022732;28;20049;-76
2023/09/17 00:13:43;;;;;;;0.00;0.00;;;;;;;;;;5032868;28;20275;-76
2023/09/17 00:16:11;;;;;;;0.00;0.00;;;;;;;;;;5027537;28;20622;-75
2023/09/17 00:18:38;;;;;;;0.00;0.00;;;;;;;;;;5035125;28;20037;-75
2023/09/17 00:21:06;;;;;;;0.32;0.32;;;;;;;;;;5039192;28;20061;-76
2023/09/17 00:23:34;;;;;;;0.10;0.10;;;;;;;;;;5018532;28;20076;-76
2023/09/17 00:26:01;;;;;;;0.00;0.00;;;;;;;;;;5032529;28;20037;-74
2023/09/17 00:28:29;;;;;;;0.10;0.10;;;;;;;;;;5023817;28;20124;-74
2023/09/17 00:30:56;;;;;;;1.25;0.45;;;;;;;;;;5043608;28;20045;-74
2023/09/17 00:33:24;;;;;;;0.00;0.00;;;;;;;;;;5016054;28;20045;-74
2023/09/17 00:35:53;;;;;;;0.00;0.00;;;;;;;;;;5036935;28;20123;-75
2023/09/17 00:38:20;;;;;;;0.20;0.20;;;;;;;;;;5012942;28;20131;-74
2023/09/17 00:40:49;;;;;;;0.00;0.00;;;;;;;;;;5013180;28;20510;-75
2023/09/17 00:43:18;;;;;;;0.00;0.00;;;;;;;;;;5038600;28;20076;-74
2023/09/17 00:45:46;;;;;;;0.47;0.47;;;;;;;;;;5025523;28;20061;-76
2023/09/17 00:48:13;;;;;;;0.00;0.00;;;;;;;;;;5030418;28;20425;-75
2023/09/17 00:50:41;;;;;;;0.05;0.05;;;;;;;;;;5032317;28;20046;-75
2023/09/17 00:53:08;;;;;;;0.55;0.55;;;;;;;;;;5031393;28;20435;-76
2023/09/17 00:55:36;;;;;;;0.45;0.45;;;;;;;;;;5014627;28;20487;-74
2023/09/17 00:58:05;;;;;;;0.00;0.00;;;;;;;;;;5006050;28;20045;-74
2023/09/17 01:00:36;;;;;;;0.10;0.10;;;;;;;;;;5033112;28;20128;-74
2023/09/17 01:03:05;;;;;;;0.00;0.00;;;;;;;;;;5037371;28;20131;-74
2023/09/17 01:05:36;;;;;;;0.00;0.00;;;;;;;;;;5038851;28;20132;-74
2023/09/17 01:08:04;;;;;;;;;;;;;;;;;;5033219;28;20052;-77
2023/09/17 01:10:33;;;;;;;0.30;0.30;;;;;;;;;;5030485;28;19937;-74
2023/09/17 01:13:02;;;;;;;0.00;0.00;;;;;;;;;;5032206;28;20436;-74
2023/09/17 01:15:30;;;;;;;0.20;0.20;;;;;;;;;;5038249;28;20056;-75
2023/09/17 01:17:57;;;;;;;0.03;0.03;;;;;;;;;;5018766;28;20049;-74
2023/09/17 01:20:29;;;;;;;0.08;0.08;;;;;;;;;;5023720;28;20119;-74
2023/09/17 01:22:59;;;;;;;0.00;0.00;;;;;;;;;;5033320;28;20427;-73
2023/09/17 01:25:35;;;;;;;0.30;0.30;;;;;;;;;;5017325;28;20045;-75
2023/09/17 01:28:05;;;;;;;0.00;0.00;;;;;;;;;;5030539;28;20041;-75
2023/09/17 01:30:33;;;;;;;0.30;0.20;;;;;;;;;;5026267;28;20521;-75
2023/09/17 01:33:01;;;;;;;0.00;0.00;;;;;;;;;;5030994;28;20128;-75
2023/09/17 01:35:30;;;;;;;0.00;0.00;;;;;;;;;;5005454;28;20515;-75
2023/09/17 01:38:00;;;;;;;0.10;0.10;;;;;;;;;;5031470;28;20048;-74
2023/09/17 01:40:29;;;;;;;0.00;0.00;;;;;;;;;;5018098;28;20044;-74
2023/09/17 01:42:57;;;;;;;0.00;0.00;;;;;;;;;;5032322;28;20102;-74
2023/09/17 01:45:26;;;;;;;0.00;0.00;;;;;;;;;;5032996;28;20138;-74
2023/09/17 01:47:54;;;;;;;0.00;0.00;;;;;;;;;;5030877;28;20199;-74
2023/09/17 01:50:23;;;;;;;0.20;0.20;;;;;;;;;;5029897;28;20128;-75
2023/09/17 01:52:51;;;;;;;0.00;0.00;;;;;;;;;;5007965;28;20529;-74
2023/09/17 01:55:19;;;;;;;0.10;0.10;;;;;;;;;;5012141;28;20056;-73
2023/09/17 01:57:46;;;;;;;0.00;0.00;;;;;;;;;;5032158;28;20045;-75
2023/09/17 02:00:16;;;;;;;2.97;2.88;;;;;;;;;;5014080;28;20555;-75
2023/09/17 02:02:47;;;;;;;0.30;0.30;;;;;;;;;;5032135;28;20418;-75
2023/09/17 02:05:20;;;;;;;0.65;0.65;;;;;;;;;;5018442;28;20509;-74
2023/09/17 02:07:48;;;;;;;0.00;0.00;;;;;;;;;;5011036;28;20057;-74
2023/09/17 02:10:15;;;;;;;0.30;0.30;;;;;;;;;;5028030;28;20053;-74
2023/09/17 02:12:44;;;;;;;1.13;1.13;;;;;;;;;;5011556;28;20048;-74
2023/09/17 02:15:11;;;;;;;2.17;2.08;;;;;;;;;;5031907;28;20139;-75
2023/09/17 02:17:39;;;;;;;2.38;2.28;;;;;;;;;;5018248;28;20048;-74
2023/09/17 02:20:08;;;;;;;0.45;0.45;;;;;;;;;;5034280;28;20933;-74
2023/09/17 02:22:35;;;;;;;0.08;0.08;;;;;;;;;;5020414;28;20396;-74
2023/09/17 02:25:03;;;;;;;0.38;0.38;;;;;;;;;;5032952;28;20052;-75
2023/09/17 02:27:31;;;;;;;0.15;0.15;;;;;;;;;;5036388;28;20072;-74
2023/09/17 02:29:59;;;;;;;0.00;0.00;;;;;;;;;;5035116;28;20044;-74
2023/09/17 02:32:26;;;;;;;0.57;0.20;;;;;;;;;;5021032;28;20502;-74
2023/09/17 02:34:54;;;;;;;0.28;0.28;;;;;;;;;;5017263;28;20050;-74
2023/09/17 02:37:22;;;;;;;0.08;0.08;;;;;;;;;;5004443;28;20144;-74
2023/09/17 02:39:50;;;;;;;0.00;0.00;;;;;;;;;;5027728;28;20057;-75
2023/09/17 02:42:17;;;;;;;0.20;0.20;;;;;;;;;;5012741;28;20041;-76
2023/09/17 02:44:45;;;;;;;24.17;22.52;;;;;;;;;;5021834;28;20049;-76
2023/09/17 02:47:12;;;;;;;13.18;12.43;;;;;;;;;;5030486;28;20519;-75
2023/09/17 02:49:40;;;;;;;3.03;2.92;;;;;;;;;;5013430;28;20056;-75
2023/09/17 02:52:07;;;;;;;0.15;0.15;;;;;;;;;;5021297;28;20566;-76
2023/09/17 02:54:35;;;;;;;0.35;0.22;;;;;;;;;;5031815;28;20136;-75
2023/09/17 02:57:02;;;;;;;9.85;9.20;;;;;;;;;;5035972;28;20119;-75
2023/09/17 02:59:34;;;;;;;1.30;1.30;;;;;;;;;;5015690;28;20053;-75
2023/09/17 03:02:02;;;;;;;0.73;0.73;;;;;;;;;;5026115;28;20106;-74
2023/09/17 03:04:29;;;;;;;2.83;2.72;;;;;;;;;;5021642;28;20136;-75
2023/09/17 03:06:58;;;;;;;0.43;0.43;;;;;;;;;;5008772;28;20423;-74
2023/09/17 03:09:25;;;;;;;14.82;13.98;;;;;;;;;;5033737;28;20403;-75
2023/09/17 03:11:53;;;;;;;49.45;46.55;;;;;;;;;;5018022;28;20519;-75
2023/09/17 03:14:21;;;;;;;0.40;0.40;;;;;;;;;;5022250;28;20044;-75
2023/09/17 03:16:49;;;;;;;0.00;0.00;;;;;;;;;;5035954;28;20041;-76
2023/09/17 03:19:19;;;;;;;0.05;0.05;;;;;;;;;;5017097;28;20365;-75
2023/09/17 03:21:47;;;;;;;0.00;0.00;;;;;;;;;;5005255;28;20045;-75
2023/09/17 03:24:15;;;;;;;0.20;0.20;;;;;;;;;;5017832;28;20578;-76
2023/09/17 03:26:43;;;;;;;0.80;0.28;;;;;;;;;;5009226;28;20045;-76
2023/09/17 03:29:12;;;;;;;0.13;0.13;;;;;;;;;;5015983;28;20085;-75
2023/09/17 03:31:41;;;;;;;0.10;0.10;;;;;;;;;;5016534;28;20037;-76
2023/09/17 03:34:11;;;;;;;1.25;0.45;;;;;;;;;;5014274;28;20541;-76
2023/09/17 03:36:38;;;;;;;7.03;6.63;;;;;;;;;;5015039;28;20491;-76
2023/09/17 03:39:08;;;;;;;3.42;3.20;;;;;;;;;;5019080;28;20419;-76
2023/09/17 03:41:40;;;;;;;0.30;0.30;;;;;;;;;;5032933;28;20072;-77
2023/09/17 03:44:09;;;;;;;0.00;0.00;;;;;;;;;;5017227;28;20109;-75
2023/09/17 03:46:38;;;;;;;0.00;0.00;;;;;;;;;;5013278;28;20056;-75
2023/09/17 03:49:07;;;;;;;2.05;1.98;;;;;;;;;;5013957;28;20053;-75
2023/09/17 03:51:35;;;;;;;0.10;0.10;;;;;;;;;;5012992;28;20049;-75
2023/09/17 03:54:04;;;;;;;0.00;0.00;;;;;;;;;;5013664;28;20555;-75
2023/09/17 03:56:31;;;;;;;0.00;0.00;;;;;;;;;;5007190;28;20522;-75
2023/09/17 03:59:00;;;;;;;0.00;0.00;;;;;;;;;;5016801;28;20449;-75
2023/09/17 04:01:29;;;;;;;0.00;0.00;;;;;;;;;;5019388;28;20045;-75
2023/09/17 04:03:57;;;;;;;0.05;0.05;;;;;;;;;;5014578;28;20056;-75
2023/09/17 04:06:25;;;;;;;1.17;0.35;;;;;;;;;;5018931;28;20075;-75
2023/09/17 04:08:52;;;;;;;0.20;0.20;;;;;;;;;;5012671;28;20049;-75
2023/09/17 04:11:20;;;;;;;0.57;0.50;;;;;;;;;;5028035;28;20052;-76
2023/09/17 04:13:48;;;;;;;0.00;0.00;;;;;;;;;;5030465;28;21838;-75
2023/09/17 04:16:20;;;;;;;0.15;0.15;;;;;;;;;;5033663;28;20124;-75
2023/09/17 04:18:49;;;;;;;;;;;;;;;;;;5030494;28;20357;-76
2023/09/17 04:21:17;;;;;;;0.10;0.10;;;;;;;;;;5014880;28;20398;-76
2023/09/17 04:23:45;;;;;;;0.55;0.55;;;;;;;;;;5013958;28;20041;-76
2023/09/17 04:26:13;;;;;;;0.10;0.10;;;;;;;;;;5013756;28;20053;-76
2023/09/17 04:28:43;;;;;;;4.90;4.60;;;;;;;;;;5006073;28;20351;-76
2023/09/17 04:31:11;;;;;;;0.32;0.30;;;;;;;;;;5024111;28;20411;-76
2023/09/17 04:33:38;;;;;;;0.13;0.10;;;;;;;;;;5028909;28;20044;-76
2023/09/17 04:36:05;;;;;;;7.18;6.72;;;;;;;;;;5003446;28;20041;-77
2023/09/17 04:38:33;;;;;;;0.15;0.15;;;;;;;;;;5009331;28;20033;-75
2023/09/17 04:41:00;;;;;;;0.10;0.10;;;;;;;;;;5022631;28;20123;-76
2023/09/17 04:43:28;;;;;;;0.40;0.40;;;;;;;;;;5010121;28;20060;-75
2023/09/17 04:45:58;;;;;;;0.00;0.00;;;;;;;;;;5013368;28;20372;-76
2023/09/17 04:48:35;;;;;;;0.03;0.03;;;;;;;;;;5018926;28;20064;-76
2023/09/17 04:51:03;;;;;;;0.00;0.00;;;;;;;;;;5006781;28;20049;-75
2023/09/17 04:53:31;;;;;;;0.00;0.00;;;;;;;;;;5000804;28;20044;-75
2023/09/17 04:55:59;;;;;;;1.35;0.73;;;;;;;;;;5031018;28;20138;-75
2023/09/17 04:58:33;;;;;;;0.03;0.03;;;;;;;;;;5005878;28;20048;-76
2023/09/17 05:01:03;;;;;;;0.00;0.00;;;;;;;;;;5023284;28;20037;-75
2023/09/17 05:03:31;;;;;;;0.10;0.10;;;;;;;;;;5012124;28;20091;-75
2023/09/17 05:05:58;;;;;;;0.00;0.00;;;;;;;;;;5012892;28;20056;-76
2023/09/17 05:08:26;;;;;;;0.00;0.00;;;;;;;;;;5023786;28;20053;-76
2023/09/17 05:10:54;;;;;;;0.20;0.20;;;;;;;;;;5029390;28;20045;-75
2023/09/17 05:13:23;;;;;;;24.23;13.10;;;;;;;;;;5020453;28;20049;-75
2023/09/17 05:15:52;;;;;;;0.00;0.00;;;;;;;;;;4993193;28;20537;-76
2023/09/17 05:18:20;;;;;;;0.00;0.00;;;;;;;;;;5007832;28;20379;-76
2023/09/17 05:20:53;;;;;;;0.10;0.10;;;;;;;;;;5004689;28;20041;-76
2023/09/17 05:23:22;;;;;;;0.00;0.00;;;;;;;;;;5022857;28;20061;-76
2023/09/17 05:25:55;;;;;;;1.05;0.93;;;;;;;;;;5010794;28;20053;-75
2023/09/17 05:28:25;;;;;;;0.10;0.10;;;;;;;;;;5010471;28;20052;-75
2023/09/17 05:30:56;;;;;;;0.10;0.10;;;;;;;;;;5010690;28;20045;-75
2023/09/17 05:33:23;;;;;;;0.15;0.15;;;;;;;;;;5011443;28;20049;-76
2023/09/17 05:35:56;;;;;;;0.00;0.00;;;;;;;;;;5009858;28;20069;-75
2023/09/17 05:38:29;;;;;;;0.98;0.47;;;;;;;;;;5009476;28;20052;-76
2023/09/17 05:40:57;;;;;;;0.38;0.22;;;;;;;;;;5027009;28;20041;-76
2023/09/17 05:43:25;;;;;;;0.10;0.10;;;;;;;;;;5030593;28;20120;-75
2023/09/17 05:45:56;;;;;;;0.30;0.30;;;;;;;;;;5011900;28;20049;-75
2023/09/17 05:48:30;;;;;;;0.00;0.00;;;;;;;;;;5003762;28;20616;-76
2023/09/17 05:50:57;;;;;;;1.08;0.73;;;;;;;;;;5027501;28;20049;-75
2023/09/17 05:53:30;;;;;;;0.20;0.20;;;;;;;;;;5012116;28;20473;-76
2023/09/17 05:55:58;;;;;;;0.00;0.00;;;;;;;;;;5014142;28;20048;-76
2023/09/17 05:58:26;;;;;;;0.55;0.55;;;;;;;;;;5023244;28;20073;-76
2023/09/17 06:00:53;;;;;;;0.17;0.17;;;;;;;;;;5005107;28;20049;-75
2023/09/17 06:03:22;;;;;;;0.00;0.00;;;;;;;;;;5015169;28;20045;-75
2023/09/17 06:05:53;;;;;;;13.38;11.60;;;;;;;;;;5009472;28;20147;-76
2023/09/17 06:08:20;;;;;;;0.00;0.00;;;;;;;;;;5023994;28;20049;-75
2023/09/17 06:10:48;;;;;;;5.30;5.00;;;;;;;;;;5009392;28;20099;-75
2023/09/17 06:13:17;;;;;;;0.20;0.20;;;;;;;;;;5005885;28;20139;-75
2023/09/17 06:15:45;;;;;;;0.43;0.43;;;;;;;;;;5009775;28;20055;-75
2023/09/17 06:18:13;;;;;;;0.05;0.05;;;;;;;;;;5004102;28;20042;-76
2023/09/17 06:20:40;;;;;;;0.85;0.85;;;;;;;;;;4997416;28;20044;-76
2023/09/17 06:23:07;;;;;;;0.40;0.40;;;;;;;;;;5009890;28;20103;-77
2023/09/17 06:25:35;;;;;;;0.00;0.00;;;;;;;;;;5030257;28;20053;-75
2023/09/17 06:28:03;;;;;;;0.00;0.00;;;;;;;;;;5037467;28;20053;-76
2023/09/17 06:30:31;;;;;;;0.00;0.00;;;;;;;;;;5010338;28;20103;-75
2023/09/17 06:32:58;;;;;;;0.00;0.00;;;;;;;;;;5031990;28;20042;-75
2023/09/17 06:35:26;;;;;;;0.00;0.00;;;;;;;;;;5025601;28;20046;-75
2023/09/17 06:37:53;;;;;;;0.00;0.00;;;;;;;;;;5028035;28;20048;-75
2023/09/17 06:40:20;;;;;;;0.00;0.00;;;;;;;;;;5021187;28;20057;-75
2023/09/17 06:42:49;;;;;;;0.10;0.10;;;;;;;;;;5012931;28;20123;-75
2023/09/17 06:45:18;;;;;;;0.00;0.00;;;;;;;;;;5004056;28;20099;-75
2023/09/17 06:47:45;;;;;;;0.77;0.77;;;;;;;;;;5009372;28;20592;-76
2023/09/17 06:50:13;;;;;;;0.00;0.00;;;;;;;;;;5029552;28;20410;-76
2023/09/17 06:52:40;;;;;;;0.85;0.85;;;;;;;;;;5036865;28;20408;-76
2023/09/17 06:55:09;;;;;;;0.28;0.28;;;;;;;;;;5019195;28;20500;-76
2023/09/17 06:57:36;;;;;;;0.32;0.32;;;;;;;;;;5029999;28;20038;-76
2023/09/17 07:00:07;;;;;;;0.15;0.15;;;;;;;;;;5010707;28;20180;-77
2023/09/17 07:02:34;;;;;;;0.50;0.35;;;;;;;;;;5036076;28;20045;-75
2023/09/17 07:05:03;;;;;;;0.00;0.00;;;;;;;;;;5006360;28;20470;-77
2023/09/17 07:07:31;;;;;;;0.00;0.00;;;;;;;;;;5027681;28;20096;-75
2023/09/17 07:09:58;;;;;;;0.00;0.00;;;;;;;;;;5033107;28;20053;-75
2023/09/17 07:12:26;;;;;;;1.17;0.90;;;;;;;;;;5039590;28;20049;-77
2023/09/17 07:14:53;;;;;;;0.00;0.00;;;;;;;;;;5034123;28;20446;-76
2023/09/17 07:17:21;;;;;;;0.17;0.17;;;;;;;;;;5040528;28;20136;-75
2023/09/17 07:19:48;;;;;;;0.03;0.03;;;;;;;;;;5041516;28;20041;-75
2023/09/17 07:22:16;;;;;;;0.30;0.30;;;;;;;;;;5028248;28;20542;-75
2023/09/17 07:24:43;;;;;;;0.35;0.32;;;;;;;;;;5036463;28;20072;-75
2023/09/17 07:27:11;;;;;;;0.00;0.00;;;;;;;;;;5036420;28;20049;-75
2023/09/17 07:29:39;;;;;;;0.22;0.22;;;;;;;;;;5040236;28;20560;-75
2023/09/17 07:32:06;;;;;;;0.73;0.73;;;;;;;;;;5033919;28;20053;-75
2023/09/17 07:34:35;;;;;;;11.52;0.50;;;;;;;;;;5036901;28;20046;-75
2023/09/17 07:37:04;;;;;;;0.00;0.00;;;;;;;;;;5038538;28;20053;-75
2023/09/17 07:39:32;;;;;;;0.00;0.00;;;;;;;;;;5038565;28;20048;-75
2023/09/17 07:41:59;;;;;;;14.52;13.32;;;;;;;;;;5042345;28;20103;-77
2023/09/17 07:44:26;;;;;;;0.00;0.00;;;;;;;;;;5032498;28;20047;-76
2023/09/17 07:46:54;;;;;;;0.68;0.68;;;;;;;;;;5031806;28;20116;-76
2023/09/17 07:49:26;;;;;;;1.88;1.80;;;;;;;;;;5031773;28;20398;-77
2023/09/17 07:51:55;;;;;;;0.03;0.03;;;;;;;;;;5035217;28;20049;-77
2023/09/17 07:54:22;;;;;;;0.10;0.10;;;;;;;;;;5033252;28;20495;-75
2023/09/17 07:56:50;;;;;;;0.10;0.10;;;;;;;;;;5026858;28;20052;-76
2023/09/17 07:59:17;;;;;;;0.00;0.00;;;;;;;;;;5026614;28;20104;-74
2023/09/17 08:01:47;;;;;;;0.08;0.08;;;;;;;;;;5027955;28;20044;-75
2023/09/17 08:04:15;;;;;;;0.00;0.00;;;;;;;;;;5028644;28;20340;-75
2023/09/17 08:06:42;;;;;;;0.40;0.30;;;;;;;;;;5031100;28;20137;-75
2023/09/17 08:09:09;;;;;;;0.10;0.10;;;;;;;;;;5026842;28;20053;-75
2023/09/17 08:11:37;;;;;;;0.10;0.10;;;;;;;;;;5032192;28;20057;-77
2023/09/17 08:14:05;;;;;;;0.00;0.00;;;;;;;;;;5027511;28;20099;-76
2023/09/17 08:16:33;;;;;;;0.00;0.00;;;;;;;;;;5037340;28;20484;-76
2023/09/17 08:19:01;;;;;;;0.00;0.00;;;;;;;;;;5037332;28;20116;-77
2023/09/17 08:21:29;;;;;;;0.73;0.65;;;;;;;;;;5040131;28;20049;-76
2023/09/17 08:24:02;;;;;;;0.00;0.00;;;;;;;;;;5029687;28;20527;-76
2023/09/17 08:26:52;;;;;;;0.00;0.00;;;;;;;;;;5037145;28;20052;-76
2023/09/17 08:29:37;;;;;;;0.00;0.00;;;;;;;;;;5022993;28;20049;-75
2023/09/17 08:32:25;;;;;;;0.00;0.00;;;;;;;;;;5030776;28;20057;-74
2023/09/17 08:35:16;;;;;;;0.00;0.00;;;;;;;;;;5024829;28;20071;-75
2023/09/17 08:37:44;;;;;;;0.00;0.00;;;;;;;;;;5034907;28;20060;-76
2023/09/17 08:40:14;;;;;;;4.88;4.63;;;;;;;;;;5038614;28;20448;-75
2023/09/17 08:42:42;;;;;;;0.00;0.00;;;;;;;;;;5032976;28;20141;-77
2023/09/17 08:45:10;;;;;;;0.10;0.10;;;;;;;;;;5030884;28;20047;-77
2023/09/17 08:47:38;;;;;;;0.20;0.10;;;;;;;;;;5029493;28;20065;-76
2023/09/17 08:50:09;;;;;;;0.10;0.10;;;;;;;;;;5015039;28;20050;-75
2023/09/17 08:52:43;;;;;;;0.00;0.00;;;;;;;;;;5027629;28;20055;-75
2023/09/17 08:55:11;;;;;;;0.00;0.00;;;;;;;;;;5039011;28;20045;-75
2023/09/17 08:57:43;;;;;;;0.30;0.30;;;;;;;;;;5035896;28;20521;-75
2023/09/17 09:00:12;;;;;;;0.00;0.00;;;;;;;;;;5038740;28;20053;-76
2023/09/17 09:03:07;;;;;;;0.20;0.20;;;;;;;;;;5035426;28;20439;-75
2023/09/17 09:05:35;;;;;;;0.00;0.00;;;;;;;;;;5037676;28;20076;-76
2023/09/17 09:08:04;;;;;;;0.00;0.00;;;;;;;;;;5033524;28;20045;-76
2023/09/17 09:10:32;;;;;;;0.00;0.00;;;;;;;;;;5039509;28;20505;-76
2023/09/17 09:12:59;;;;;;;0.10;0.10;;;;;;;;;;5039670;28;20077;-75
2023/09/17 09:15:27;;;;;;;0.00;0.00;;;;;;;;;;5033606;28;20120;-75
2023/09/17 09:17:55;;;;;;;0.00;0.00;;;;;;;;;;5035742;28;20041;-76
2023/09/17 09:20:23;;;;;;;0.00;0.00;;;;;;;;;;5033629;28;20394;-75
2023/09/17 09:22:50;;;;;;;0.32;0.32;;;;;;;;;;5027111;28;20072;-76
2023/09/17 09:25:18;;;;;;;0.00;0.00;;;;;;;;;;5036699;28;20064;-75
2023/09/17 09:27:46;;;;;;;0.00;0.00;;;;;;;;;;5030639;28;20107;-75
2023/09/17 09:30:14;;;;;;;0.00;0.00;;;;;;;;;;5032971;28;20426;-75
2023/09/17 09:32:43;;;;;;;0.00;0.00;;;;;;;;;;5032105;28;20055;-75
2023/09/17 09:35:11;;;;;;;0.00;0.00;;;;;;;;;;5030145;28;20060;-74
2023/09/17 09:37:39;;;;;;;0.17;0.17;;;;;;;;;;5037263;28;20045;-75
2023/09/17 09:40:07;;;;;;;0.00;0.00;;;;;;;;;;5032557;28;20046;-75
2023/09/17 09:42:34;;;;;;;0.00;0.00;;;;;;;;;;5034724;28;20124;-75
2023/09/17 09:45:03;;;;;;;0.00;0.00;;;;;;;;;;5037734;28;20514;-75
2023/09/17 09:47:31;;;;;;;0.08;0.08;;;;;;;;;;5030907;28;20045;-75
2023/09/17 09:50:00;;;;;;;0.10;0.10;;;;;;;;;;5028501;28;20057;-76
2023/09/17 09:52:29;;;;;;;0.00;0.00;;;;;;;;;;5034148;28;20075;-76
2023/09/17 09:54:56;;;;;;;0.00;0.00;;;;;;;;;;5019185;28;20516;-75
2023/09/17 09:57:25;;;;;;;0.08;0.08;;;;;;;;;;5021517;28;20071;-76
2023/09/17 09:59:53;;;;;;;0.00;0.00;;;;;;;;;;5007221;28;20045;-76
2023/09/17 10:02:21;;;;;;;4.28;4.03;;;;;;;;;;5027826;28;20578;-75
2023/09/17 10:04:49;;;;;;;0.10;0.10;;;;;;;;;;5027623;28;20127;-76
2023/09/17 10:07:17;;;;;;;0.00;0.00;;;;;;;;;;5027592;28;20053;-76
2023/09/17 10:09:45;;;;;;;0.10;0.10;;;;;;;;;;5028279;28;20079;-76
2023/09/17 10:12:12;;;;;;;0.00;0.00;;;;;;;;;;5031490;28;20040;-76
2023/09/17 10:14:41;;;;;;;0.00;0.00;;;;;;;;;;5020929;28;20095;-76
2023/09/17 10:17:10;;;;;;;0.00;0.00;;;;;;;;;;5028614;28;20049;-76
2023/09/17 10:19:38;;;;;;;0.15;0.15;;;;;;;;;;5038516;28;20045;-76
2023/09/17 10:22:07;;;;;;;0.00;0.00;;;;;;;;;;5030361;28;20045;-76
2023/09/17 10:24:39;;;;;;;0.00;0.00;;;;;;;;;;5033432;28;20041;-76
2023/09/17 10:27:07;;;;;;;0.00;0.00;;;;;;;;;;5032151;28;20045;-76
2023/09/17 10:29:43;;;;;;;0.10;0.10;;;;;;;;;;5029987;28;20057;-76
2023/09/17 10:32:10;;;;;;;0.05;0.03;;;;;;;;;;5029527;28;20534;-77
2023/09/17 10:34:39;;;;;;;0.10;0.10;;;;;;;;;;5035257;28;20044;-76
2023/09/17 10:37:07;;;;;;;0.00;0.00;;;;;;;;;;5030015;28;20064;-77
2023/09/17 10:39:36;;;;;;;0.00;0.00;;;;;;;;;;5029768;28;20154;-76
2023/09/17 10:42:03;;;;;;;0.00;0.00;;;;;;;;;;5030821;28;20052;-76
2023/09/17 10:44:36;;;;;;;0.00;0.00;;;;;;;;;;5040759;28;20048;-76
2023/09/17 10:47:06;;;;;;;0.32;0.32;;;;;;;;;;5033268;28;20061;-77
2023/09/17 10:49:36;;;;;;;0.00;0.00;;;;;;;;;;5043096;28;20048;-77
2023/09/17 10:52:05;;;;;;;0.00;0.00;;;;;;;;;;5023884;28;20046;-76
2023/09/17 10:54:33;;;;;;;0.00;0.00;;;;;;;;;;5034202;28;20053;-77
2023/09/17 10:57:04;;;;;;;0.05;0.05;;;;;;;;;;5031430;28;20143;-77
2023/09/17 10:59:32;;;;;;;;;;;;;;;;;;5028419;28;20103;-76
2023/09/17 11:02:00;;;;;;;0.30;0.30;;;;;;;;;;5021742;28;21146;-76
2023/09/17 11:04:28;;;;;;;0.00;0.00;;;;;;;;;;5026434;28;20049;-76
2023/09/17 11:06:56;;;;;;;0.13;0.13;;;;;;;;;;5031339;28;20105;-77
2023/09/17 11:09:23;;;;;;;0.00;0.00;;;;;;;;;;5037449;28;20049;-76
2023/09/17 11:11:51;;;;;;;0.00;0.00;;;;;;;;;;5015353;28;20049;-76
2023/09/17 11:14:18;;;;;;;0.28;0.28;;;;;;;;;;5032982;28;20537;-76
2023/09/17 11:16:48;;;;;;;0.00;0.00;;;;;;;;;;5025583;28;20040;-76
2023/09/17 11:19:17;;;;;;;0.30;0.30;;;;;;;;;;5030322;28;20049;-77
2023/09/17 11:21:50;;;;;;;5.95;5.63;;;;;;;;;;5032759;28;20077;-77
2023/09/17 11:24:19;;;;;;;0.08;0.08;;;;;;;;;;5027496;28;20518;-76
2023/09/17 11:26:48;;;;;;;0.00;0.00;;;;;;;;;;5027623;28;20081;-77
2023/09/17 11:29:15;;;;;;;0.00;0.00;;;;;;;;;;5034215;28;20077;-76
2023/09/17 11:31:52;;;;;;;0.00;0.00;;;;;;;;;;5035115;28;20052;-76
2023/09/17 11:34:21;;;;;;;0.00;0.00;;;;;;;;;;5028088;28;20053;-76
2023/09/17 11:36:50;;;;;;;0.10;0.10;;;;;;;;;;5032075;28;20175;-76
2023/09/17 11:39:20;;;;;;;0.20;0.20;;;;;;;;;;5032447;28;20080;-76
2023/09/17 11:41:52;;;;;;;0.10;0.00;;;;;;;;;;5032765;28;20040;-76
2023/09/17 11:44:23;;;;;;;0.00;0.00;;;;;;;;;;5031455;28;22322;-76
2023/09/17 11:46:51;;;;;;;6.25;5.85;;;;;;;;;;5029305;28;20298;-76
2023/09/17 11:49:19;;;;;;;0.00;0.00;;;;;;;;;;5033689;28;20052;-76
2023/09/17 11:51:47;;;;;;;0.10;0.10;;;;;;;;;;5031934;28;20044;-76
2023/09/17 11:54:23;;;;;;;6.03;5.72;;;;;;;;;;5030876;28;20057;-76
2023/09/17 11:56:55;;;;;;;0.00;0.00;;;;;;;;;;5028532;28;20041;-76
2023/09/17 11:59:23;;;;;;;0.00;0.00;;;;;;;;;;5031129;28;20095;-75
2023/09/17 12:01:55;;;;;;;0.00;0.00;;;;;;;;;;5028522;28;20577;-76
2023/09/17 12:04:26;;;;;;;0.00;0.00;;;;;;;;;;5029470;28;20056;-76
2023/09/17 12:06:55;;;;;;;0.00;0.00;;;;;;;;;;5025157;28;20415;-76
2023/09/17 12:12:00;;;;;;;0.00;0.00;;;;;;;;;;5026604;28;20143;-76
2023/09/17 12:14:27;;;;;;;0.00;0.00;;;;;;;;;;5031464;28;20056;-76
2023/09/17 12:16:55;;;;;;;0.00;0.00;;;;;;;;;;5031108;28;20045;-76
2023/09/17 12:19:23;;;;;;;0.00;0.00;;;;;;;;;;5030614;28;20515;-75
2023/09/17 12:21:53;;;;;;;0.00;0.00;;;;;;;;;;5032597;28;20554;-74
2023/09/17 12:30:00;;;;;;;0.20;0.20;;;;;;;;;;5030894;28;20407;-75
2023/09/17 12:32:30;;;;;;;0.00;0.00;;;;;;;;;;5032438;28;20046;-76
2023/09/17 12:34:58;;;;;;;0.00;0.00;;;;;;;;;;5026204;28;20052;-76
2023/09/17 12:37:26;;;;;;;0.00;0.00;;;;;;;;;;5032553;28;20045;-75
2023/09/17 12:39:54;;;;;;;0.17;0.17;;;;;;;;;;5027872;28;20118;-76
2023/09/17 12:42:22;;;;;;;0.00;0.00;;;;;;;;;;5028710;28;20048;-75
2023/09/17 12:44:50;;;;;;;0.30;0.30;;;;;;;;;;5026644;28;20049;-77
2023/09/17 12:47:19;;;;;;;0.00;0.00;;;;;;;;;;5024314;28;20134;-75
2023/09/17 12:49:47;;;;;;;0.10;0.10;;;;;;;;;;5025957;28;20065;-75
2023/09/17 12:52:15;;;;;;;0.10;0.10;;;;;;;;;;5027329;28;20045;-77
2023/09/17 12:54:44;;;;;;;0.05;0.05;;;;;;;;;;5025646;28;20072;-76
2023/09/17 12:57:11;;;;;;;0.20;0.20;;;;;;;;;;5026352;28;20045;-76
2023/09/17 12:59:39;;;;;;;0.00;0.00;;;;;;;;;;5025906;28;20548;-76
2023/09/17 13:02:07;;;;;;;0.00;0.00;;;;;;;;;;5010559;28;20104;-75
2023/09/17 13:04:35;;;;;;;0.20;0.20;;;;;;;;;;5026485;28;20049;-76
2023/09/17 13:07:22;;;;;;;0.10;0.10;;;;;;;;;;5023719;28;20199;-76
2023/09/17 13:09:53;;;;;;;0.00;0.00;;;;;;;;;;5026941;28;20081;-75
2023/09/17 13:12:27;;;;;;;0.00;0.00;;;;;;;;;;5023080;28;20049;-75
2023/09/17 13:14:55;;;;;;;0.00;0.00;;;;;;;;;;5021889;28;20123;-75
2023/09/17 13:17:23;;;;;;;0.00;0.00;;;;;;;;;;5024550;28;20462;-76
2023/09/17 13:19:51;;;;;;;0.10;0.10;;;;;;;;;;5033085;28;20039;-76
2023/09/17 13:22:19;;;;;;;4.65;4.40;;;;;;;;;;5035382;28;20128;-76
2023/09/17 13:24:47;;;;;;;0.00;0.00;;;;;;;;;;5033421;28;20503;-76
2023/09/17 13:27:19;;;;;;;0.00;0.00;;;;;;;;;;5030869;28;20049;-76
2023/09/17 13:29:51;;;;;;;0.10;0.00;;;;;;;;;;5026825;28;20049;-76
2023/09/17 13:32:19;;;;;;;0.00;0.00;;;;;;;;;;5028881;28;20389;-77
2023/09/17 13:34:48;;;;;;;0.13;0.13;;;;;;;;;;5033754;28;20053;-77
2023/09/17 13:37:16;;;;;;;0.00;0.00;;;;;;;;;;5025112;28;20037;-76
2023/09/17 13:39:45;;;;;;;0.00;0.00;;;;;;;;;;5024358;28;20487;-76
2023/09/17 13:42:12;;;;;;;0.00;0.00;;;;;;;;;;5030016;28;20049;-75
2023/09/17 13:44:40;;;;;;;0.00;0.00;;;;;;;;;;5030534;28;20042;-76
2023/09/17 13:47:09;;;;;;;0.00;0.00;;;;;;;;;;5027829;28;20049;-77
2023/09/17 13:49:37;;;;;;;0.00;0.00;;;;;;;;;;5025548;28;20131;-77
2023/09/17 13:52:05;;;;;;;0.00;0.00;;;;;;;;;;5031578;28;20096;-77
2023/09/17 13:54:33;;;;;;;0.00;0.00;;;;;;;;;;5024297;28;20056;-77
2023/09/17 13:57:04;;;;;;;0.00;0.00;;;;;;;;;;5025094;28;20049;-77
2023/09/17 13:59:32;;;;;;;0.00;0.00;;;;;;;;;;5023165;28;20056;-77
2023/09/17 14:02:00;;;;;;;0.10;0.10;;;;;;;;;;5021173;28;20049;-77
2023/09/17 14:04:27;;;;;;;0.20;0.13;;;;;;;;;;5023406;28;20084;-77
2023/09/17 14:06:55;;;;;;;0.00;0.00;;;;;;;;;;5028979;28;20049;-78
2023/09/17 14:09:24;;;;;;;0.05;0.03;;;;;;;;;;5024944;28;20053;-78
2023/09/17 14:11:51;;;;;;;0.00;0.00;;;;;;;;;;5027216;28;20124;-77
2023/09/17 14:14:18;;;;;;;0.00;0.00;;;;;;;;;;5023700;28;20048;-77
2023/09/17 14:16:46;;;;;;;0.00;0.00;;;;;;;;;;5031180;28;20041;-77
2023/09/17 14:19:17;;;;;;;0.00;0.00;;;;;;;;;;5026980;28;20132;-78
2023/09/17 14:21:47;;;;;;;0.10;0.10;;;;;;;;;;5027546;28;20042;-80
2023/09/17 14:24:14;;;;;;;0.00;0.00;;;;;;;;;;5017776;28;20045;-77
2023/09/17 14:26:43;;;;;;;0.00;0.00;;;;;;;;;;5023482;28;20119;-79
2023/09/17 14:29:10;;;;;;;0.00;0.00;;;;;;;;;;5067255;22;20106;-78
2023/09/17 14:31:38;;;;;;;0.00;0.00;;;;;;;;;;5066108;28;20045;-79
2023/09/17 14:34:10;;;;;;;0.00;0.00;;;;;;;;;;5063933;28;20048;-78
2023/09/17 14:36:37;;;;;;;0.00;0.00;;;;;;;;;;5067087;28;20561;-79
2023/09/17 14:39:08;;;;;;;0.10;0.10;;;;;;;;;;5051513;28;20053;-79
2023/09/17 14:41:39;;;;;;;0.00;0.00;;;;;;;;;;5050924;28;20340;-78
2023/09/17 14:44:07;;;;;;;0.00;0.00;;;;;;;;;;5055924;28;20126;-80
2023/09/17 14:46:37;;;;;;;0.00;0.00;;;;;;;;;;5044983;28;20058;-77
2023/09/17 14:49:06;;;;;;;0.22;0.22;;;;;;;;;;5056788;28;20100;-79
2023/09/17 14:51:34;;;;;;;0.10;0.10;;;;;;;;;;5050383;28;21384;-78
2023/09/17 14:54:01;;;;;;;0.10;0.10;;;;;;;;;;5060802;28;20044;-78
2023/09/17 14:56:30;;;;;;;0.00;0.00;;;;;;;;;;5037183;28;20111;-79
2023/09/17 14:58:58;;;;;;;0.00;0.00;;;;;;;;;;5013000;28;20100;-78
2023/09/17 15:01:25;;;;;;;0.00;0.00;;;;;;;;;;5000619;28;20053;-78